Time;durP1;ratioP1;P1;durP2;ratioP2;P2;SDS_P1;SDS_P2;PMS_P1;PMS_P2;Temp;Humidity;BMP_temperature;BMP_pressure;BME280_temperature;BME280_humidity;BME280_pressure;Samples;Min_cycle;Max_cycle;Signal;HPM_P1;HPM_P2
2023/05/12 00:00:35;;;;;;;5.57;3.63;;;;;;;-142.57;100.00;115900.28;5044383;28;20029;-87
2023/05/12 00:03:03;;;;;;;5.13;3.97;;;;;;;-142.57;100.00;115900.28;5044217;28;20037;-84
2023/05/12 00:05:30;;;;;;;5.13;4.25;;;;;;;-142.57;100.00;115900.28;5025280;28;20033;-83
2023/05/12 00:08:34;;;;;;;5.38;4.13;;;;;;;-142.57;100.00;115900.28;5038558;28;20478;-84
2023/05/12 00:11:00;;;;;;;7.30;4.97;;;;;;;-142.57;100.00;115900.28;5032292;28;20045;-83
2023/05/12 00:13:28;;;;;;;6.95;4.70;;;;;;;-142.57;100.00;115900.28;5050619;28;20083;-83
2023/05/12 00:15:57;;;;;;;7.82;5.38;;;;;;;-142.57;100.00;115900.28;5050057;28;20033;-84
2023/05/12 00:18:25;;;;;;;6.13;5.43;;;;;;;-142.57;100.00;115900.28;5049429;28;20038;-83
2023/05/12 00:20:52;;;;;;;6.25;5.63;;;;;;;-142.57;100.00;115900.28;5012143;28;20123;-84
2023/05/12 00:23:19;;;;;;;6.80;6.05;;;;;;;-142.57;100.00;115900.28;5029327;28;20041;-83
2023/05/12 00:25:44;;;;;;;7.22;6.35;;;;;;;-142.57;100.00;115900.28;5046711;28;20122;-81
2023/05/12 00:28:32;;;;;;;8.23;6.07;;;;;;;-142.57;100.00;115900.28;5014960;28;20033;-83
2023/05/12 00:31:04;;;;;;;8.10;6.20;;;;;;;-142.57;100.00;115900.28;5032087;28;20059;-82
2023/05/12 00:33:30;;;;;;;7.22;6.43;;;;;;;-142.57;100.00;115900.28;5026161;28;20034;-80
2023/05/12 00:36:00;;;;;;;7.78;6.85;;;;;;;-142.57;100.00;115900.28;5045371;28;20088;-81
2023/05/12 00:38:26;;;;;;;9.13;6.72;;;;;;;-142.57;100.00;115900.28;5022949;28;20054;-83
2023/05/12 00:40:52;;;;;;;8.40;6.97;;;;;;;-142.57;100.00;115900.28;5033266;28;20026;-84
2023/05/12 00:43:18;;;;;;;8.65;6.90;;;;;;;-142.57;100.00;115900.28;5020492;28;20034;-83
2023/05/12 00:45:47;;;;;;;9.65;6.50;;;;;;;-142.57;100.00;115900.28;5040541;28;20041;-82
2023/05/12 00:48:13;;;;;;;11.90;7.13;;;;;;;-142.57;100.00;115900.28;5039742;28;20097;-84
2023/05/12 00:50:42;;;;;;;10.57;7.45;;;;;;;-142.57;100.00;115900.28;5025252;28;20500;-83
2023/05/12 00:53:08;;;;;;;8.60;7.43;;;;;;;-142.57;100.00;115900.28;5038426;28;20045;-83
2023/05/12 00:55:36;;;;;;;9.90;7.93;;;;;;;-142.57;100.00;115900.28;5028591;28;20121;-85
2023/05/12 00:58:04;;;;;;;8.43;7.22;;;;;;;-142.57;100.00;115900.28;4999615;28;20046;-84
2023/05/12 01:00:30;;;;;;;10.30;7.95;;;;;;;-142.57;100.00;115900.28;4999678;28;20045;-84
2023/05/12 01:02:59;;;;;;;10.63;7.38;;;;;;;-142.57;100.00;115900.28;4999934;28;20034;-85
2023/05/12 01:05:40;;;;;;;8.55;7.65;;;;;;;-142.57;100.00;115900.28;4999421;28;20069;-86
2023/05/12 01:08:08;;;;;;;11.77;8.10;;;;;;;-142.57;100.00;115900.28;4983783;28;20042;-83
2023/05/12 01:10:34;;;;;;;9.68;7.70;;;;;;;-142.57;100.00;115900.28;4983459;28;20034;-84
2023/05/12 01:13:00;;;;;;;8.60;7.70;;;;;;;-142.57;100.00;115900.28;5016581;28;20032;-84
2023/05/12 01:15:33;;;;;;;9.45;7.68;;;;;;;-142.57;100.00;115900.28;5040650;28;20021;-84
2023/05/12 01:18:01;;;;;;;7.72;6.93;;;;;;;-142.57;100.00;115900.28;5010043;28;20042;-83
2023/05/12 01:20:28;;;;;;;8.73;6.80;;;;;;;-142.57;100.00;115900.28;4983263;28;20048;-84
2023/05/12 01:22:54;;;;;;;11.00;7.65;;;;;;;-142.57;100.00;115900.28;5000821;28;20034;-84
2023/05/12 01:25:22;;;;;;;9.65;7.20;;;;;;;-142.57;100.00;115900.28;5005305;28;20033;-85
2023/05/12 01:27:49;;;;;;;12.65;8.05;;;;;;;-142.57;100.00;115900.28;5022954;28;20069;-83
2023/05/12 01:30:17;;;;;;;9.07;7.15;;;;;;;-142.57;100.00;115900.28;5017407;28;20042;-86
2023/05/12 01:32:43;;;;;;;9.88;7.43;;;;;;;-142.57;100.00;115900.28;5009547;28;20095;-86
2023/05/12 01:35:10;;;;;;;9.27;7.20;;;;;;;-142.57;100.00;115900.28;5019355;28;20061;-84
2023/05/12 01:37:41;;;;;;;8.27;7.18;;;;;;;-142.57;100.00;115900.28;5010066;28;20448;-84
2023/05/12 01:40:07;;;;;;;10.82;8.00;;;;;;;-142.57;100.00;115900.28;5013007;28;20029;-84
2023/05/12 01:42:33;;;;;;;10.50;8.10;;;;;;;-142.57;100.00;115900.28;5020264;28;20025;-85
2023/05/12 01:44:59;;;;;;;11.93;8.60;;;;;;;-142.57;100.00;115900.28;5021065;28;20376;-84
2023/05/12 01:47:29;;;;;;;11.13;8.75;;;;;;;-142.57;100.00;115900.28;5021298;28;20080;-81
2023/05/12 01:53:25;;;;;;;13.57;8.88;;;;;;;-142.57;100.00;115900.28;5002799;28;20095;-85
2023/05/12 01:55:51;;;;;;;12.55;9.02;;;;;;;-142.57;100.00;115900.28;5019821;28;20120;-86
2023/05/12 01:58:19;;;;;;;11.55;9.52;;;;;;;-142.57;100.00;115900.28;5009600;28;20030;-83
2023/05/12 02:00:45;;;;;;;13.30;9.73;;;;;;;-142.57;100.00;115900.28;4999778;28;20395;-83
2023/05/12 02:03:15;;;;;;;15.55;10.00;;;;;;;-142.57;100.00;115900.28;5002483;28;20092;-84
2023/05/12 02:05:40;;;;;;;11.10;9.35;;;;;;;-142.57;100.00;115900.28;5002465;28;20041;-84
2023/05/12 02:08:06;;;;;;;14.20;9.63;;;;;;;-142.57;100.00;115900.28;4992631;28;20026;-82
2023/05/12 02:10:32;;;;;;;19.52;9.45;;;;;;;-142.57;100.00;115900.28;5000086;28;20034;-84
2023/05/12 02:12:57;;;;;;;16.15;10.60;;;;;;;-142.57;100.00;115900.28;5016196;28;20059;-83
2023/05/12 02:15:24;;;;;;;14.02;10.27;;;;;;;-142.57;100.00;115900.28;5023194;28;20029;-83
2023/05/12 02:17:52;;;;;;;13.50;9.80;;;;;;;-142.57;100.00;115900.28;5037230;28;20060;-83
2023/05/12 02:20:18;;;;;;;14.50;9.52;;;;;;;-142.57;100.00;115900.28;5033876;28;20047;-83
2023/05/12 02:22:44;;;;;;;12.02;9.52;;;;;;;-142.57;100.00;115900.28;5032282;28;20068;-83
2023/05/12 02:25:09;;;;;;;15.02;9.52;;;;;;;-142.57;100.00;115900.28;5029101;28;20036;-86
2023/05/12 02:27:34;;;;;;;17.10;9.27;;;;;;;-142.57;100.00;115900.28;5013045;28;20056;-84
2023/05/12 02:30:00;;;;;;;13.02;8.70;;;;;;;-142.57;100.00;115900.28;5020424;28;20080;-85
2023/05/12 02:32:32;;;;;;;12.10;8.85;;;;;;;-142.57;100.00;115900.28;5048782;28;20025;-83
2023/05/12 02:34:58;;;;;;;12.83;7.80;;;;;;;-142.57;100.00;115900.28;5022877;28;20080;-86
2023/05/12 02:37:24;;;;;;;14.25;7.75;;;;;;;-142.57;100.00;115900.28;5038240;28;20069;-85
2023/05/12 02:39:49;;;;;;;12.45;7.10;;;;;;;-142.57;100.00;115900.28;4999348;28;20030;-83
2023/05/12 02:42:16;;;;;;;9.25;7.00;;;;;;;-142.57;100.00;115900.28;5036389;28;20041;-83
2023/05/12 02:44:41;;;;;;;8.20;6.90;;;;;;;-142.57;100.00;115900.28;5003112;28;20068;-86
2023/05/12 02:47:07;;;;;;;7.55;6.03;;;;;;;-142.57;100.00;115900.28;5007733;28;20042;-85
2023/05/12 02:49:33;;;;;;;7.15;6.25;;;;;;;-142.57;100.00;115900.28;5026509;28;20049;-84
2023/05/12 02:52:14;;;;;;;8.80;6.20;;;;;;;-142.57;100.00;115900.28;5013368;28;20088;-86
2023/05/12 02:54:39;;;;;;;9.18;6.43;;;;;;;-142.57;100.00;115900.28;5019809;28;20079;-83
2023/05/12 02:57:05;;;;;;;11.07;6.40;;;;;;;-142.57;100.00;115900.28;5036370;28;20026;-85
2023/05/12 02:59:31;;;;;;;11.65;7.00;;;;;;;-142.57;100.00;115900.28;5010082;28;20506;-86
2023/05/12 03:01:59;;;;;;;12.35;7.85;;;;;;;-142.57;100.00;115900.28;5027455;28;20045;-82
2023/05/12 03:04:25;;;;;;;11.68;7.47;;;;;;;-142.57;100.00;115900.28;5015677;28;20122;-83
2023/05/12 03:06:51;;;;;;;11.05;8.25;;;;;;;-142.57;100.00;115900.28;5033660;28;20041;-83
2023/05/12 03:09:16;;;;;;;12.45;7.95;;;;;;;-142.57;100.00;115900.28;5000385;28;20030;-84
2023/05/12 03:11:42;;;;;;;10.25;7.78;;;;;;;-142.57;100.00;115900.28;5032213;28;20033;-84
2023/05/12 03:14:07;;;;;;;8.82;7.90;;;;;;;-142.57;100.00;115900.28;5015798;28;20040;-83
2023/05/12 03:16:33;;;;;;;12.57;8.35;;;;;;;-142.57;100.00;115900.28;5034214;28;20021;-83
2023/05/12 03:18:59;;;;;;;11.75;9.10;;;;;;;-142.57;100.00;115900.28;5029315;28;20402;-83
2023/05/12 03:21:27;;;;;;;16.10;9.27;;;;;;;-142.57;100.00;115900.28;5013029;28;20029;-84
2023/05/12 03:23:52;;;;;;;11.40;9.50;;;;;;;-142.57;100.00;115900.28;4996322;28;20450;-84
2023/05/12 03:26:18;;;;;;;14.57;10.18;;;;;;;-142.57;100.00;115900.28;5014083;28;20034;-82
2023/05/12 03:28:44;;;;;;;15.60;10.25;;;;;;;-142.57;100.00;115900.28;4996783;28;20042;-83
2023/05/12 03:31:10;;;;;;;22.42;12.27;;;;;;;-142.57;100.00;115900.28;5000582;28;20037;-84
2023/05/12 03:33:36;;;;;;;31.23;12.18;;;;;;;-142.57;100.00;115900.28;5032077;28;20037;-83
2023/05/12 03:36:01;;;;;;;15.80;11.20;;;;;;;-142.57;100.00;115900.28;5017705;28;20033;-83
2023/05/12 03:38:27;;;;;;;18.65;11.55;;;;;;;-142.57;100.00;115900.28;5001645;28;20463;-84
2023/05/12 03:41:05;;;;;;;15.40;10.38;;;;;;;-142.57;100.00;115900.28;5017268;28;20034;-83
2023/05/12 03:43:31;;;;;;;17.17;12.23;;;;;;;-142.57;100.00;115900.28;5017066;28;20034;-85
2023/05/12 03:45:57;;;;;;;21.40;13.30;;;;;;;-142.57;100.00;115900.28;5032989;28;20033;-85
2023/05/12 03:48:23;;;;;;;18.63;12.50;;;;;;;-142.57;100.00;115900.28;5020540;28;20437;-82
2023/05/12 03:50:51;;;;;;;16.75;12.63;;;;;;;-142.57;100.00;115900.28;5036932;28;20432;-85
2023/05/12 03:53:16;;;;;;;20.55;12.60;;;;;;;-142.57;100.00;115900.28;5035563;28;20038;-84
2023/05/12 03:55:42;;;;;;;20.25;11.85;;;;;;;-142.57;100.00;115900.28;5010964;28;20030;-84
2023/05/12 03:58:09;;;;;;;14.63;12.13;;;;;;;-142.57;100.00;115900.28;4998170;28;20041;-84
2023/05/12 04:00:34;;;;;;;17.13;12.20;;;;;;;-142.57;100.00;115900.28;4983723;28;20046;-83
2023/05/12 04:03:00;;;;;;;17.92;12.25;;;;;;;-142.57;100.00;115900.28;5029777;28;20030;-84
2023/05/12 04:05:25;;;;;;;20.33;13.02;;;;;;;-142.57;100.00;115900.28;5019564;28;20513;-85
2023/05/12 04:07:51;;;;;;;23.60;13.10;;;;;;;-142.57;100.00;115900.28;5034820;28;20430;-82
2023/05/12 04:10:17;;;;;;;21.95;13.73;;;;;;;-142.57;100.00;115900.28;5033029;28;20100;-82
2023/05/12 04:12:43;;;;;;;21.50;12.55;;;;;;;-142.57;100.00;115900.28;5028753;28;20034;-83
2023/05/12 04:15:09;;;;;;;20.92;13.65;;;;;;;-142.57;100.00;115900.28;5002907;28;20041;-85
2023/05/12 04:17:34;;;;;;;20.92;12.88;;;;;;;-142.57;100.00;115900.28;5000072;28;20034;-83
2023/05/12 04:20:03;;;;;;;22.27;13.18;;;;;;;-142.57;100.00;115900.28;5000756;28;20042;-85
2023/05/12 04:22:29;;;;;;;23.15;13.57;;;;;;;-142.57;100.00;115900.28;5001358;28;20488;-80
2023/05/12 04:24:54;;;;;;;17.48;12.00;;;;;;;-142.57;100.00;115900.28;4999538;28;20037;-84
2023/05/12 04:27:21;;;;;;;23.15;12.55;;;;;;;-142.57;100.00;115900.28;5016379;28;20037;-80
2023/05/12 04:29:46;;;;;;;17.77;11.02;;;;;;;-142.57;100.00;115900.28;5018550;28;20050;-82
2023/05/12 04:32:12;;;;;;;16.52;12.27;;;;;;;-142.57;100.00;115900.28;5019815;28;20034;-82
2023/05/12 04:34:37;;;;;;;18.08;13.35;;;;;;;-142.57;100.00;115900.28;5019764;28;20038;-83
2023/05/12 04:37:04;;;;;;;18.27;12.68;;;;;;;-142.57;100.00;115900.28;5023468;28;20053;-83
2023/05/12 04:39:29;;;;;;;15.52;11.73;;;;;;;-142.57;100.00;115900.28;5023153;28;20033;-82
2023/05/12 04:41:56;;;;;;;13.90;10.73;;;;;;;-142.57;100.00;115900.28;5026803;28;20093;-82
2023/05/12 04:44:28;;;;;;;14.95;11.88;;;;;;;-142.57;100.00;115900.28;5029354;28;20034;-81
2023/05/12 04:47:11;;;;;;;24.33;11.02;;;;;;;-142.57;100.00;115900.28;5020975;28;20036;-84
2023/05/12 04:49:37;;;;;;;18.02;11.60;;;;;;;-142.57;100.00;115900.28;5022600;28;20059;-85
2023/05/12 04:52:06;;;;;;;17.15;11.40;;;;;;;-142.57;100.00;115900.28;5041270;28;20512;-86
2023/05/12 04:54:31;;;;;;;16.67;9.93;;;;;;;-142.57;100.00;115900.28;5016446;28;20033;-81
2023/05/12 04:56:57;;;;;;;18.23;10.68;;;;;;;-142.57;100.00;115900.28;5023100;28;20048;-85
2023/05/12 04:59:25;;;;;;;15.32;10.13;;;;;;;-142.57;100.00;115900.28;4981240;28;20037;-84
2023/05/12 05:01:53;;;;;;;16.23;10.00;;;;;;;-142.57;100.00;115900.28;4997436;28;20042;-89
2023/05/12 05:04:18;;;;;;;14.90;10.35;;;;;;;-142.57;100.00;115900.28;5019396;28;20115;-85
2023/05/12 05:06:45;;;;;;;18.63;10.52;;;;;;;-142.57;100.00;115900.28;5003587;28;20040;-86
2023/05/12 05:09:11;;;;;;;14.25;11.52;;;;;;;-142.57;100.00;115900.28;5031647;28;20578;-86
2023/05/12 05:11:37;;;;;;;19.95;11.45;;;;;;;-142.57;100.00;115900.28;5018317;28;20042;-86
2023/05/12 05:14:02;;;;;;;16.98;11.25;;;;;;;-142.57;100.00;115900.28;5041088;28;20064;-87
2023/05/12 05:16:28;;;;;;;18.00;10.93;;;;;;;-142.57;100.00;115900.28;4999952;28;20133;-88
2023/05/12 05:18:54;;;;;;;17.13;11.30;;;;;;;-142.57;100.00;115900.28;5020195;28;20055;-89
2023/05/12 05:21:20;;;;;;;18.00;11.60;;;;;;;-142.57;100.00;115900.28;5018935;28;20034;-87
2023/05/12 05:23:45;;;;;;;19.52;11.38;;;;;;;-142.57;100.00;115900.28;5019522;28;20083;-85
2023/05/12 05:26:11;;;;;;;19.45;12.80;;;;;;;-142.57;100.00;115900.28;5017942;28;20041;-86
2023/05/12 05:28:38;;;;;;;26.30;13.20;;;;;;;-142.57;100.00;115900.28;5000125;28;20360;-85
2023/05/12 05:31:05;;;;;;;26.85;13.77;;;;;;;-142.57;100.00;115900.28;4998261;28;20045;-85
2023/05/12 05:33:31;;;;;;;18.38;11.88;;;;;;;-142.57;100.00;115900.28;4982095;28;20137;-89
2023/05/12 05:35:57;;;;;;;17.30;11.18;;;;;;;-142.57;100.00;115900.28;5000662;28;20077;-88
2023/05/12 05:38:23;;;;;;;15.45;10.45;;;;;;;-142.57;100.00;115900.28;5001107;28;20041;-90
2023/05/12 05:40:48;;;;;;;16.88;11.25;;;;;;;-142.57;100.00;115900.28;5005440;28;20113;-87
2023/05/12 05:43:14;;;;;;;24.25;9.93;;;;;;;-142.57;100.00;115900.28;4971607;28;20044;-87
2023/05/12 05:45:40;;;;;;;14.13;10.65;;;;;;;-142.57;100.00;115900.28;5019895;28;20085;-91
2023/05/12 05:48:09;;;;;;;19.33;9.95;;;;;;;-142.57;100.00;115900.28;5005781;28;20044;-88
2023/05/12 05:50:35;;;;;;;14.38;10.52;;;;;;;-142.57;100.00;115900.28;5010562;28;20113;-87
2023/05/12 05:53:00;;;;;;;17.88;10.48;;;;;;;-142.57;100.00;115900.28;5017169;28;20454;-88
2023/05/12 05:55:26;;;;;;;16.02;11.10;;;;;;;-142.57;100.00;115900.28;5019029;28;20033;-88
2023/05/12 05:57:52;;;;;;;20.08;10.60;;;;;;;-142.57;100.00;115900.28;5009961;28;20028;-85
2023/05/12 06:00:18;;;;;;;15.32;10.00;;;;;;;-142.57;100.00;115900.28;5007205;28;20040;-85
2023/05/12 06:02:46;;;;;;;17.10;10.85;;;;;;;-142.57;100.00;115900.28;5000906;28;20041;-86
2023/05/12 06:05:16;;;;;;;15.30;10.27;;;;;;;-142.57;100.00;115900.28;4981938;28;20038;-87
2023/05/12 06:07:42;;;;;;;16.15;10.52;;;;;;;-142.57;100.00;115900.28;4987390;28;20036;-86
2023/05/12 06:10:08;;;;;;;21.35;10.43;;;;;;;-142.57;100.00;115900.28;5001537;28;20399;-84
2023/05/12 06:12:34;;;;;;;19.60;11.00;;;;;;;-142.57;100.00;115900.28;5001145;28;20026;-84
2023/05/12 06:14:59;;;;;;;14.27;9.80;;;;;;;-142.57;100.00;115900.28;5036385;28;20033;-85
2023/05/12 06:17:25;;;;;;;15.93;10.27;;;;;;;-142.57;100.00;115900.28;5035185;28;20128;-86
2023/05/12 06:19:50;;;;;;;15.63;9.60;;;;;;;-142.57;100.00;115900.28;5017454;28;20462;-87
2023/05/12 06:22:16;;;;;;;15.18;8.77;;;;;;;-142.57;100.00;115900.28;4998552;28;20064;-85
2023/05/12 06:24:47;;;;;;;12.77;9.07;;;;;;;-142.57;100.00;115900.28;5033871;28;20049;-85
2023/05/12 06:27:17;;;;;;;19.00;8.45;;;;;;;-142.57;100.00;115900.28;5016923;28;20029;-85
2023/05/12 06:29:45;;;;;;;16.40;8.23;;;;;;;-142.57;100.00;115900.28;4998641;28;20025;-87
2023/05/12 06:32:11;;;;;;;13.38;9.15;;;;;;;-142.57;100.00;115900.28;4998235;28;20483;-86
2023/05/12 06:34:36;;;;;;;15.13;8.93;;;;;;;-142.57;100.00;115900.28;5015626;28;20436;-86
2023/05/12 06:37:03;;;;;;;13.00;8.45;;;;;;;-142.57;100.00;115900.28;5023885;28;20116;-86
2023/05/12 06:39:29;;;;;;;11.52;8.35;;;;;;;-142.57;100.00;115900.28;4999677;28;20041;-85
2023/05/12 06:41:54;;;;;;;15.55;8.98;;;;;;;-142.57;100.00;115900.28;5023605;28;20484;-88
2023/05/12 06:44:20;;;;;;;13.88;8.80;;;;;;;-142.57;100.00;115900.28;5038487;28;20085;-86
2023/05/12 06:46:50;;;;;;;11.07;7.40;;;;;;;-142.57;100.00;115900.28;5032964;28;20037;-87
2023/05/12 06:49:16;;;;;;;16.60;8.20;;;;;;;-142.57;100.00;115900.28;4996821;28;20038;-86
2023/05/12 06:51:41;;;;;;;13.82;8.00;;;;;;;-142.57;100.00;115900.28;4996406;28;20384;-85
2023/05/12 06:54:10;;;;;;;10.98;6.57;;;;;;;-142.57;100.00;115900.28;5018159;28;20041;-88
2023/05/12 06:56:36;;;;;;;8.40;5.28;;;;;;;-142.57;100.00;115900.28;4997990;28;20030;-86
2023/05/12 06:59:03;;;;;;;8.55;4.88;;;;;;;-142.57;100.00;115900.28;5023520;28;20376;-85
2023/05/12 07:01:29;;;;;;;9.27;4.10;;;;;;;-142.57;100.00;115900.28;4997364;28;20117;-87
2023/05/12 07:03:55;;;;;;;6.20;4.32;;;;;;;-142.57;100.00;115900.28;5016771;28;20137;-85
2023/05/12 07:06:21;;;;;;;8.10;4.25;;;;;;;-142.57;100.00;115900.28;5016150;28;20540;-86
2023/05/12 07:08:47;;;;;;;14.45;4.70;;;;;;;-142.57;100.00;115900.28;5015241;28;20072;-82
2023/05/12 07:11:18;;;;;;;6.72;5.05;;;;;;;-142.57;100.00;115900.28;5016946;28;20045;-86
2023/05/12 07:13:45;;;;;;;14.73;5.10;;;;;;;-142.57;100.00;115900.28;5024074;28;20033;-87
2023/05/12 07:16:11;;;;;;;9.90;4.82;;;;;;;-142.57;100.00;115900.28;5022256;28;20280;-85
2023/05/12 07:18:38;;;;;;;5.55;3.90;;;;;;;-142.57;100.00;115900.28;5008583;28;20036;-85
2023/05/12 07:21:03;;;;;;;3.70;2.80;;;;;;;-142.57;100.00;115900.28;5026211;28;20030;-84
2023/05/12 07:23:29;;;;;;;7.15;3.60;;;;;;;-142.57;100.00;115900.28;5018279;28;20037;-84
2023/05/12 07:25:55;;;;;;;4.82;3.30;;;;;;;-142.57;100.00;115900.28;5015230;28;20038;-85
2023/05/12 07:28:21;;;;;;;5.53;3.22;;;;;;;-142.57;100.00;115900.28;4997014;28;20514;-86
2023/05/12 07:30:46;;;;;;;4.80;2.85;;;;;;;-142.57;100.00;115900.28;5015403;28;20034;-86
2023/05/12 07:33:12;;;;;;;7.95;2.80;;;;;;;-142.57;100.00;115900.28;5015840;28;20148;-86
2023/05/12 07:35:37;;;;;;;4.75;2.97;;;;;;;-142.57;100.00;115900.28;5014736;28;20030;-86
2023/05/12 07:38:03;;;;;;;4.80;2.88;;;;;;;-142.57;100.00;115900.28;5020188;28;20065;-88
2023/05/12 07:40:28;;;;;;;7.85;2.67;;;;;;;-142.57;100.00;115900.28;5012956;28;20048;-86
2023/05/12 07:42:54;;;;;;;3.63;2.70;;;;;;;-142.57;100.00;115900.28;4999351;28;20026;-88
2023/05/12 07:45:22;;;;;;;5.22;2.50;;;;;;;-142.57;99.31;115900.28;5033501;28;20044;-91
2023/05/12 07:47:49;;;;;;;3.28;2.42;;;;;;;-142.57;96.66;115900.28;5021702;28;20029;-90
2023/05/12 07:50:16;;;;;;;4.43;2.92;;;;;;;-142.57;96.73;115900.28;5009154;28;20112;-90
2023/05/12 07:52:46;;;;;;;4.00;2.80;;;;;;;-142.57;91.27;115900.28;5014474;28;20105;-90
2023/05/12 07:55:12;;;;;;;4.22;2.42;;;;;;;-142.57;86.71;115900.28;5027038;28;20041;-85
2023/05/12 07:57:38;;;;;;;2.95;2.05;;;;;;;-142.57;82.44;115900.28;5028320;28;20029;-88
2023/05/12 08:00:06;;;;;;;2.80;2.05;;;;;;;-142.57;84.16;115900.28;5034684;28;20034;-87
2023/05/12 08:02:39;;;;;;;18.60;2.70;;;;;;;-142.57;75.26;115900.28;5030680;28;20041;-87
2023/05/12 08:05:06;;;;;;;5.35;1.77;;;;;;;-142.57;73.10;115900.28;4991776;28;20206;-84
2023/05/12 08:07:31;;;;;;;4.97;1.73;;;;;;;-142.57;72.25;115900.28;5028840;28;20033;-89
2023/05/12 08:09:57;;;;;;;2.55;2.00;;;;;;;-142.57;67.56;115900.28;5030641;28;20051;-85
2023/05/12 08:12:23;;;;;;;3.97;1.83;;;;;;;-142.57;68.02;115900.28;5034941;28;20065;-88
2023/05/12 08:14:48;;;;;;;1.90;1.35;;;;;;;-142.57;67.93;115900.28;5027531;28;20129;-88
2023/05/12 08:17:14;;;;;;;3.70;1.80;;;;;;;-142.57;69.58;115900.28;5028301;28;20041;-88
2023/05/12 08:19:39;;;;;;;4.75;1.67;;;;;;;-142.57;68.72;115900.28;5032165;28;20049;-89
2023/05/12 08:22:08;;;;;;;2.70;2.15;;;;;;;-142.57;70.35;115900.28;5022072;28;20041;-87
2023/05/12 08:24:33;;;;;;;2.33;1.65;;;;;;;-142.57;70.70;115900.28;5029686;28;20058;-90
2023/05/12 08:26:59;;;;;;;2.92;2.22;;;;;;;-142.57;74.83;115900.28;5031079;28;20041;-86
2023/05/12 08:29:25;;;;;;;3.53;2.33;;;;;;;-142.57;77.44;115900.28;5038385;28;20029;-86
2023/05/12 08:31:50;;;;;;;3.65;2.13;;;;;;;-142.57;79.19;115900.28;5038162;28;20054;-86
2023/05/12 08:34:16;;;;;;;4.18;2.70;;;;;;;-142.57;77.66;115900.28;5025327;28;20084;-85
2023/05/12 08:36:42;;;;;;;4.55;3.10;;;;;;;-142.57;80.69;115900.28;5021030;28;20033;-86
2023/05/12 08:39:10;;;;;;;3.70;2.88;;;;;;;-142.57;77.19;115900.28;5036427;28;20040;-88
2023/05/12 08:41:54;;;;;;;5.97;2.67;;;;;;;-142.57;77.19;115900.28;5019240;28;20022;-85
2023/05/12 08:44:22;;;;;;;4.53;2.40;;;;;;;-142.57;71.85;115900.28;5030628;28;20033;-85
2023/05/12 08:46:48;;;;;;;8.30;2.50;;;;;;;-142.57;79.93;115900.28;5018394;28;20041;-85
2023/05/12 08:49:17;;;;;;;2.55;1.90;;;;;;;-142.57;78.74;115900.28;5028943;28;20555;-88
2023/05/12 08:51:56;;;;;;;3.28;2.47;;;;;;;-142.57;81.18;115900.28;5024229;28;20129;-84
2023/05/12 08:54:22;;;;;;;3.38;1.92;;;;;;;-142.57;77.28;115900.28;5032674;28;20061;-86
2023/05/12 08:56:52;;;;;;;5.38;2.38;;;;;;;-142.57;78.92;115900.28;5024599;28;20332;-84
2023/05/12 08:59:18;;;;;;;4.28;1.98;;;;;;;-142.57;79.97;115900.28;5008415;28;20041;-86
2023/05/12 09:01:46;;;;;;;9.13;2.55;;;;;;;-142.57;81.40;115900.28;4995402;28;20038;-88
2023/05/12 09:04:14;;;;;;;7.47;2.22;;;;;;;-142.57;79.13;115900.28;5022336;28;20399;-86
2023/05/12 09:06:43;;;;;;;4.95;1.60;;;;;;;-142.57;72.67;115900.28;5018930;28;20041;-90
2023/05/12 09:09:11;;;;;;;4.03;1.90;;;;;;;-142.57;72.49;115900.28;5017948;28;20042;-84
2023/05/12 09:11:38;;;;;;;2.83;1.77;;;;;;;-142.57;73.37;115900.28;5001609;28;20037;-91
2023/05/12 09:14:08;;;;;;;4.68;1.60;;;;;;;-142.57;75.51;115900.28;5022319;28;20407;-86
2023/05/12 09:16:42;;;;;;;2.05;1.67;;;;;;;-142.57;71.86;115900.28;5004940;28;20029;-86
2023/05/12 09:19:08;;;;;;;7.68;1.92;;;;;;;-142.57;70.43;115900.28;5021156;28;20034;-89
2023/05/12 09:21:33;;;;;;;4.20;2.55;;;;;;;-142.57;72.67;115900.28;5021885;28;20099;-89
2023/05/12 09:24:07;;;;;;;4.22;2.40;;;;;;;-142.57;69.60;115900.28;5028924;28;20041;-84
2023/05/12 09:26:55;;;;;;;2.30;1.60;;;;;;;-142.57;67.59;115900.28;5014808;28;20040;-84
2023/05/12 09:29:21;;;;;;;3.92;2.40;;;;;;;-142.57;70.47;115900.28;5031700;28;20026;-84
2023/05/12 09:31:51;;;;;;;2.72;2.17;;;;;;;-142.57;74.73;115900.28;5032554;28;20037;-86
2023/05/12 09:34:19;;;;;;;8.07;2.50;;;;;;;-142.57;77.83;115900.28;5033006;28;20089;-88
2023/05/12 09:36:55;;;;;;;2.70;2.33;;;;;;;-142.57;76.51;115900.28;5022093;28;20018;-86
2023/05/12 09:39:21;;;;;;;3.60;2.50;;;;;;;-142.57;80.75;115900.28;5008354;28;20038;-85
2023/05/12 09:41:47;;;;;;;4.00;2.80;;;;;;;-142.57;84.56;115900.28;5033209;28;20033;-85
2023/05/12 09:44:15;;;;;;;5.65;2.83;;;;;;;-142.57;84.36;115900.28;5013445;28;20110;-85
2023/05/12 09:46:41;;;;;;;3.20;2.80;;;;;;;-142.57;89.74;115900.28;5031359;28;20483;-85
2023/05/12 09:49:07;;;;;;;4.97;3.08;;;;;;;-142.57;90.78;115900.28;5030763;28;20032;-88
2023/05/12 09:51:32;;;;;;;4.00;2.50;;;;;;;-142.57;93.14;115900.28;5056039;28;20135;-87
2023/05/12 09:53:58;;;;;;;6.55;1.20;;;;;;;-142.57;92.97;115900.28;5055863;28;20111;-87
2023/05/12 09:56:28;;;;;;;5.72;1.25;;;;;;;-142.57;95.66;115900.28;5036830;28;20037;-86
2023/05/12 09:58:55;;;;;;;3.30;1.00;;;;;;;-142.57;97.45;115900.28;5054487;28;20401;-86
2023/05/12 10:01:24;;;;;;;5.10;0.70;;;;;;;-142.57;89.87;115900.28;5055414;28;20474;-88
2023/05/12 10:03:53;;;;;;;14.38;0.60;;;;;;;-142.57;88.10;115900.28;5055706;28;20033;-84
2023/05/12 10:06:27;;;;;;;4.07;0.50;;;;;;;-142.57;88.12;115900.28;5057095;28;20040;-84
2023/05/12 10:09:02;;;;;;;2.50;0.50;;;;;;;-142.57;87.28;115900.28;5026091;28;20034;-88
2023/05/12 10:11:28;;;;;;;10.05;0.40;;;;;;;-142.57;95.29;115900.28;5031654;28;20045;-84
2023/05/12 10:13:55;;;;;;;6.80;0.80;;;;;;;-142.57;100.00;115900.28;5028853;28;20033;-86
2023/05/12 10:16:21;;;;;;;5.63;0.50;;;;;;;-142.57;100.00;115900.28;5020459;28;20041;-86
2023/05/12 10:18:48;;;;;;;6.85;0.80;;;;;;;-142.57;100.00;115900.28;5001095;28;20036;-89
2023/05/12 10:21:15;;;;;;;7.60;1.20;;;;;;;-142.57;100.00;115900.28;5001896;28;20491;-87
2023/05/12 10:23:43;;;;;;;5.97;0.85;;;;;;;-142.57;100.00;115900.28;5003694;28;20104;-88
2023/05/12 10:26:09;;;;;;;7.95;0.98;;;;;;;-142.57;100.00;115900.28;5019354;28;20066;-86
2023/05/12 10:28:37;;;;;;;1.70;0.57;;;;;;;-142.57;100.00;115900.28;5011023;28;20504;-86
2023/05/12 10:31:06;;;;;;;1.05;0.52;;;;;;;-142.57;100.00;115900.28;5023060;28;20084;-86
2023/05/12 10:33:32;;;;;;;9.23;0.85;;;;;;;-142.57;100.00;115900.28;5018668;28;20038;-91
2023/05/12 10:35:58;;;;;;;5.22;0.65;;;;;;;-142.57;100.00;115900.28;4996487;28;20407;-87
2023/05/12 10:38:24;;;;;;;1.40;0.60;;;;;;;-142.57;100.00;115900.28;5029235;28;20030;-84
2023/05/12 10:41:00;;;;;;;1.40;0.60;;;;;;;-142.57;100.00;115900.28;5024829;28;20037;-84
2023/05/12 10:43:48;;;;;;;1.02;0.45;;;;;;;-142.57;100.00;115900.28;5019533;28;20044;-84
2023/05/12 10:46:19;;;;;;;6.72;0.60;;;;;;;-142.57;100.00;115900.28;5008814;28;20176;-86
2023/05/12 10:49:04;;;;;;;2.67;0.50;;;;;;;-142.57;100.00;115900.28;5024003;28;20038;-86
2023/05/12 10:51:32;;;;;;;3.60;0.50;;;;;;;-142.57;100.00;115900.28;5018984;28;20066;-84
2023/05/12 10:54:01;;;;;;;0.77;0.40;;;;;;;-142.57;100.00;115900.28;5037362;28;20034;-85
2023/05/12 10:56:46;;;;;;;10.57;0.82;;;;;;;-142.57;100.00;115900.28;5035896;28;20068;-86
2023/05/12 10:59:20;;;;;;;1.13;0.47;;;;;;;-142.57;96.68;115900.28;5003954;28;20034;-90
2023/05/12 11:02:02;;;;;;;0.47;0.20;;;;;;;-142.57;89.34;115900.28;5018987;28;20453;-87